createdAt,value
2023-03-06T00:00:51.241Z,78.79
2023-03-06T00:03:22.385Z,78.86
2023-03-06T00:05:50.840Z,79.14
2023-03-06T00:08:18.806Z,79.47
2023-03-06T00:10:48.458Z,79.63
2023-03-06T00:13:19.974Z,78.90
2023-03-06T00:15:48.406Z,78.97
2023-03-06T00:18:18.141Z,79.22
2023-03-06T00:20:48.518Z,79.31
2023-03-06T00:23:18.976Z,79.45
2023-03-06T00:25:49.217Z,79.15
2023-03-06T00:28:17.801Z,79.62
2023-03-06T00:30:47.501Z,79.79
2023-03-06T00:33:15.941Z,79.90
2023-03-06T00:35:44.293Z,80.10
2023-03-06T00:38:12.404Z,80.30
2023-03-06T00:40:40.528Z,80.13
2023-03-06T00:43:09.736Z,80.54
2023-03-06T00:45:41.013Z,79.99
2023-03-06T00:48:09.839Z,79.41
2023-03-06T00:50:38.257Z,79.93
2023-03-06T00:53:08.515Z,79.95
2023-03-06T00:55:36.689Z,80.06
2023-03-06T00:58:04.398Z,80.28
2023-03-06T01:00:33.283Z,80.51
2023-03-06T01:03:01.145Z,80.68
2023-03-06T01:05:28.763Z,81.56
2023-03-06T01:07:56.340Z,81.29
2023-03-06T01:10:24.094Z,82.46
2023-03-06T01:12:51.741Z,82.74
2023-03-06T01:15:19.610Z,83.62
2023-03-06T01:17:48.897Z,83.76
2023-03-06T01:20:18.426Z,83.96
2023-03-06T01:22:46.018Z,84.66
2023-03-06T01:25:14.350Z,84.45
2023-03-06T01:27:41.978Z,84.69
2023-03-06T01:30:11.279Z,84.99
2023-03-06T01:32:38.965Z,84.88
2023-03-06T01:35:08.765Z,85.49
2023-03-06T01:37:36.490Z,85.76
2023-03-06T01:40:04.308Z,85.53
2023-03-06T01:42:32.256Z,85.89
2023-03-06T01:45:01.556Z,85.82
2023-03-06T01:47:29.262Z,86.20
2023-03-06T01:49:57.806Z,86.26
2023-03-06T01:52:28.299Z,86.72
2023-03-06T01:54:58.158Z,86.92
2023-03-06T01:57:28.609Z,86.63
2023-03-06T02:00:03.238Z,86.66
2023-03-06T02:02:30.888Z,87.18
2023-03-06T02:04:59.062Z,87.43
2023-03-06T02:07:28.063Z,86.94
2023-03-06T02:09:55.675Z,87.18
2023-03-06T02:12:23.391Z,87.52
2023-03-06T02:14:51.063Z,87.92
2023-03-06T02:17:21.527Z,88.53
2023-03-06T02:19:54.097Z,88.69
2023-03-06T02:22:21.917Z,88.73
2023-03-06T02:24:53.007Z,89.19
2023-03-06T02:27:22.088Z,88.93
2023-03-06T02:29:49.661Z,88.89
2023-03-06T02:32:17.514Z,89.33
2023-03-06T02:34:54.345Z,89.50
2023-03-06T02:37:22.661Z,90.07
2023-03-06T02:39:54.236Z,90.29
2023-03-06T02:42:25.425Z,90.39
2023-03-06T02:44:55.160Z,90.21
2023-03-06T02:47:22.814Z,90.51
2023-03-06T02:49:50.444Z,90.44
2023-03-06T02:52:18.046Z,91.17
2023-03-06T02:54:45.617Z,91.24
2023-03-06T02:57:13.673Z,91.63
2023-03-06T02:59:42.588Z,91.19
2023-03-06T03:02:10.230Z,91.46
2023-03-06T03:04:37.891Z,90.97
2023-03-06T03:07:05.714Z,91.25
2023-03-06T03:09:36.755Z,91.80
2023-03-06T03:12:06.035Z,91.93
2023-03-06T03:14:33.720Z,92.49
2023-03-06T03:17:02.681Z,92.21
2023-03-06T03:19:30.315Z,92.69
2023-03-06T03:21:57.898Z,92.69
2023-03-06T03:24:26.280Z,92.81
2023-03-06T03:26:53.869Z,93.34
2023-03-06T03:29:21.665Z,93.61
2023-03-06T03:31:49.449Z,93.47
2023-03-06T03:34:18.906Z,93.36
2023-03-06T03:36:46.910Z,93.37
2023-03-06T03:39:14.629Z,93.22
2023-03-06T03:41:42.197Z,93.39
2023-03-06T03:44:09.794Z,93.67
2023-03-06T03:46:37.417Z,93.77
2023-03-06T03:49:05.465Z,93.75
2023-03-06T03:51:34.845Z,94.07
2023-03-06T03:54:02.528Z,94.28
2023-03-06T03:56:30.062Z,94.64
2023-03-06T03:58:57.684Z,94.57
2023-03-06T04:01:25.616Z,94.69
2023-03-06T04:03:53.274Z,95.03
2023-03-06T04:06:20.913Z,94.89
2023-03-06T04:08:49.910Z,95.28
2023-03-06T04:11:17.918Z,95.17
2023-03-06T04:13:45.580Z,94.94
2023-03-06T04:16:13.236Z,95.07
2023-03-06T04:18:40.906Z,94.92
2023-03-06T04:21:08.514Z,94.81
2023-03-06T04:23:36.073Z,95.29
2023-03-06T04:26:05.373Z,95.49
2023-03-06T04:28:32.990Z,95.32
2023-03-06T04:31:00.560Z,95.26
2023-03-06T04:33:28.184Z,95.45
2023-03-06T04:35:55.807Z,95.65
2023-03-06T04:38:23.489Z,95.63
2023-03-06T04:40:51.148Z,95.57
2023-03-06T04:43:20.195Z,95.68
2023-03-06T04:45:47.948Z,95.63
2023-03-06T04:48:15.811Z,95.57
2023-03-06T04:50:43.409Z,95.50
2023-03-06T04:53:11.082Z,95.64
2023-03-06T04:55:38.667Z,95.76
2023-03-06T04:58:06.258Z,94.77
2023-03-06T05:00:35.365Z,95.74
2023-03-06T05:03:03.446Z,96.17
2023-03-06T05:05:31.050Z,95.90
2023-03-06T05:07:58.682Z,95.65
2023-03-06T05:10:26.346Z,95.90
2023-03-06T05:12:54.026Z,95.67
2023-03-06T05:15:22.023Z,95.38
2023-03-06T05:17:51.011Z,95.79
2023-03-06T05:20:19.118Z,95.85
2023-03-06T05:22:46.707Z,96.25
2023-03-06T05:25:14.564Z,96.22
2023-03-06T05:27:42.362Z,96.44
2023-03-06T05:30:12.506Z,96.31
2023-03-06T05:32:40.184Z,96.50
2023-03-06T05:35:11.890Z,96.12
2023-03-06T05:37:39.490Z,96.55
2023-03-06T05:40:09.494Z,96.31
2023-03-06T05:42:37.065Z,96.45
2023-03-06T05:45:05.288Z,96.53
2023-03-06T05:47:33.292Z,96.31
2023-03-06T05:50:00.901Z,96.30
2023-03-06T05:52:29.954Z,96.72
2023-03-06T05:54:57.594Z,96.94
2023-03-06T05:57:25.709Z,96.88
2023-03-06T05:59:53.433Z,97.06
2023-03-06T06:02:21.289Z,96.84
2023-03-06T06:04:49.043Z,96.93
2023-03-06T06:07:17.471Z,97.19
2023-03-06T06:09:46.506Z,96.80
2023-03-06T06:12:14.592Z,97.03
2023-03-06T06:14:42.248Z,97.14
2023-03-06T06:17:10.335Z,96.70
2023-03-06T06:19:38.010Z,96.91
2023-03-06T06:22:06.015Z,97.40
2023-03-06T06:24:33.831Z,97.66
2023-03-06T06:27:04.109Z,97.59
2023-03-06T06:29:32.123Z,97.16
2023-03-06T06:32:00.169Z,97.19
2023-03-06T06:34:29.126Z,97.20
2023-03-06T06:36:56.758Z,97.46
2023-03-06T06:39:24.971Z,97.21
2023-03-06T06:42:09.582Z,97.82
2023-03-06T06:44:41.765Z,97.48
2023-03-06T06:47:25.788Z,97.26
2023-03-06T06:49:54.825Z,97.21
2023-03-06T06:52:22.964Z,97.64
2023-03-06T06:54:50.555Z,97.97
2023-03-06T06:57:18.236Z,97.70
2023-03-06T06:59:47.147Z,97.74
2023-03-06T07:02:16.413Z,98.02
2023-03-06T07:05:00.392Z,97.96
2023-03-06T07:07:29.883Z,97.75
2023-03-06T07:09:57.473Z,98.13
2023-03-06T07:12:25.099Z,98.40
2023-03-06T07:14:54.026Z,97.53
2023-03-06T07:17:21.650Z,97.86
2023-03-06T07:19:49.234Z,97.57
2023-03-06T07:22:16.825Z,97.78
2023-03-06T07:24:44.507Z,97.84
2023-03-06T07:27:13.372Z,97.15
2023-03-06T07:29:43.632Z,96.59
2023-03-06T07:32:12.805Z,96.28
2023-03-06T07:34:40.521Z,96.34
2023-03-06T07:37:08.094Z,96.54
2023-03-06T07:39:35.766Z,96.11
2023-03-06T07:42:03.423Z,95.86
2023-03-06T07:44:31.748Z,95.60
2023-03-06T07:46:59.650Z,95.47
2023-03-06T07:49:28.645Z,95.05
2023-03-06T07:51:56.230Z,94.66
2023-03-06T07:54:24.019Z,93.24
2023-03-06T07:56:51.863Z,93.77
2023-03-06T07:59:19.626Z,93.50
2023-03-06T08:01:47.233Z,92.89
2023-03-06T08:04:14.854Z,92.19
2023-03-06T08:06:43.746Z,93.18
2023-03-06T08:09:11.686Z,92.49
2023-03-06T08:11:39.515Z,92.68
2023-03-06T08:14:07.094Z,92.18
2023-03-06T08:16:34.875Z,92.04
2023-03-06T08:19:02.576Z,90.30
2023-03-06T08:21:30.268Z,90.27
2023-03-06T08:23:59.206Z,89.67
2023-03-06T08:26:28.157Z,89.61
2023-03-06T08:28:57.534Z,89.09
2023-03-06T08:31:28.636Z,88.07
2023-03-06T08:33:57.333Z,88.29
2023-03-06T08:36:25.254Z,87.61
2023-03-06T08:38:53.216Z,87.12
2023-03-06T08:41:22.381Z,86.52
2023-03-06T08:43:50.648Z,85.64
2023-03-06T08:46:19.696Z,85.04
2023-03-06T08:48:48.204Z,83.80
2023-03-06T08:51:16.300Z,83.89
2023-03-06T08:53:44.501Z,83.38
2023-03-06T08:56:17.402Z,83.18
2023-03-06T08:58:46.727Z,82.96
2023-03-06T09:01:15.806Z,82.80
2023-03-06T09:03:43.728Z,82.18
2023-03-06T09:06:11.653Z,81.51
2023-03-06T09:08:42.851Z,81.26
2023-03-06T09:11:10.890Z,80.46
2023-03-06T09:13:38.605Z,80.81
2023-03-06T09:16:08.886Z,81.25
2023-03-06T09:18:36.705Z,79.96
2023-03-06T09:21:05.065Z,79.40
2023-03-06T09:23:32.852Z,78.92
2023-03-06T09:26:01.567Z,78.53
2023-03-06T09:28:29.403Z,78.26
2023-03-06T09:30:57.054Z,77.62
2023-03-06T09:33:26.248Z,77.54
2023-03-06T09:35:55.890Z,76.77
2023-03-06T09:38:25.905Z,77.50
2023-03-06T09:41:02.699Z,77.14
2023-03-06T09:43:32.581Z,76.27
2023-03-06T09:46:00.387Z,76.42
2023-03-06T09:48:38.848Z,76.15
2023-03-06T09:51:12.242Z,75.49
2023-03-06T09:56:23.794Z,75.92
2023-03-06T09:58:55.155Z,76.08
2023-03-06T10:01:24.815Z,76.39
2023-03-06T10:03:55.809Z,76.67
2023-03-06T10:06:25.329Z,76.29
2023-03-06T10:08:56.566Z,75.85
2023-03-06T10:11:27.375Z,75.79
2023-03-06T10:13:59.936Z,74.92
2023-03-06T10:16:29.182Z,73.83
2023-03-06T10:19:03.133Z,74.29
2023-03-06T10:21:40.312Z,74.53
2023-03-06T10:24:21.163Z,73.03
2023-03-06T10:26:51.844Z,73.32
2023-03-06T10:29:32.497Z,72.14
2023-03-06T10:32:08.705Z,72.29
2023-03-06T10:34:39.752Z,71.75
2023-03-06T10:37:18.523Z,71.77
2023-03-06T10:39:46.472Z,72.21
2023-03-06T10:42:14.039Z,72.30
2023-03-06T10:44:41.560Z,72.18
2023-03-06T10:47:28.440Z,71.52
2023-03-06T10:50:00.721Z,71.67
2023-03-06T10:52:31.711Z,70.64
2023-03-06T10:55:26.063Z,70.31
2023-03-06T10:57:53.713Z,69.55
2023-03-06T11:00:36.057Z,69.40
2023-03-06T11:03:22.628Z,69.78
2023-03-06T11:06:02.426Z,66.15
2023-03-06T11:08:30.335Z,67.10
2023-03-06T11:11:00.234Z,66.34
2023-03-06T11:13:30.411Z,66.66
2023-03-06T11:16:03.875Z,65.57
2023-03-06T11:18:36.293Z,65.16
2023-03-06T11:21:09.977Z,65.21
2023-03-06T11:23:44.227Z,63.95
2023-03-06T11:26:33.172Z,63.98
2023-03-06T11:29:07.516Z,64.55
2023-03-06T11:31:37.360Z,65.98
2023-03-06T11:34:08.733Z,64.70
2023-03-06T11:36:40.990Z,65.31
2023-03-06T11:39:22.186Z,66.03
2023-03-06T11:41:55.276Z,65.61
2023-03-06T11:44:27.209Z,65.45
2023-03-06T11:47:02.713Z,64.98
2023-03-06T11:49:34.966Z,65.28
2023-03-06T11:52:07.691Z,64.57
2023-03-06T11:54:35.327Z,64.19
2023-03-06T11:57:05.482Z,63.80
2023-03-06T11:59:52.338Z,64.05
2023-03-06T12:02:26.556Z,64.16
2023-03-06T12:04:57.125Z,64.53
2023-03-06T12:07:31.143Z,65.10
2023-03-06T12:10:06.776Z,65.37
2023-03-06T12:12:50.676Z,64.73
2023-03-06T12:15:41.630Z,63.06
2023-03-06T12:18:20.012Z,63.97
2023-03-06T12:20:53.894Z,64.39
2023-03-06T12:23:33.572Z,64.62
2023-03-06T12:26:05.058Z,63.21
2023-03-06T12:28:41.823Z,64.01
2023-03-06T12:31:32.140Z,63.92
2023-03-06T12:34:13.511Z,62.68
2023-03-06T12:36:51.500Z,62.20
2023-03-06T12:39:28.326Z,62.16
2023-03-06T12:42:11.477Z,61.15
2023-03-06T12:45:21.810Z,61.02
2023-03-06T12:47:51.201Z,61.55
2023-03-06T12:50:21.853Z,61.36
2023-03-06T12:52:49.843Z,60.73
2023-03-06T12:55:23.720Z,58.86
2023-03-06T12:57:52.709Z,59.70
2023-03-06T13:01:03.802Z,59.50
2023-03-06T13:03:39.227Z,59.87
2023-03-06T13:06:15.291Z,59.81
2023-03-06T13:09:00.218Z,60.07
2023-03-06T13:11:42.609Z,60.47
2023-03-06T13:14:24.102Z,60.73
2023-03-06T13:16:52.171Z,61.68
2023-03-06T13:19:20.785Z,60.52
2023-03-06T13:22:03.440Z,60.92
2023-03-06T13:24:33.782Z,60.67
2023-03-06T13:27:07.784Z,60.56
2023-03-06T13:30:05.248Z,60.41
2023-03-06T13:32:35.351Z,60.59
2023-03-06T13:35:03.479Z,60.03
2023-03-06T13:37:38.531Z,59.49
2023-03-06T13:40:22.971Z,58.89
2023-03-06T13:43:16.040Z,59.62
2023-03-06T13:45:44.086Z,60.26
2023-03-06T13:48:43.191Z,61.01
2023-03-06T13:51:17.069Z,60.95
2023-03-06T13:53:59.724Z,61.20
2023-03-06T13:57:01.515Z,60.75
2023-03-06T13:59:46.085Z,60.22
2023-03-06T14:02:40.679Z,60.41
2023-03-06T14:05:12.460Z,60.77
2023-03-06T14:07:41.553Z,61.13
2023-03-06T14:10:16.349Z,60.92
2023-03-06T14:12:59.682Z,60.75
2023-03-06T14:15:31.515Z,61.11
2023-03-06T14:18:02.796Z,60.89
2023-03-06T14:20:35.194Z,60.97
2023-03-06T14:23:16.579Z,60.83
2023-03-06T14:25:46.277Z,60.69
2023-03-06T14:28:24.576Z,60.58
2023-03-06T14:30:54.201Z,60.11
2023-03-06T14:33:32.014Z,60.39
2023-03-06T14:36:02.545Z,60.35
2023-03-06T14:38:33.782Z,60.43
2023-03-06T14:41:01.567Z,60.78
2023-03-06T14:43:29.215Z,61.16
2023-03-06T14:45:59.263Z,61.78
2023-03-06T14:48:38.434Z,61.88
2023-03-06T14:51:06.925Z,61.34
2023-03-06T14:53:35.321Z,61.84
2023-03-06T14:56:06.057Z,61.47
2023-03-06T14:58:36.242Z,61.37
2023-03-06T15:01:07.691Z,61.19
2023-03-06T15:03:43.960Z,62.47
2023-03-06T15:06:15.168Z,62.56
2023-03-06T15:08:45.357Z,62.52
2023-03-06T15:11:13.098Z,62.72
2023-03-06T15:13:40.879Z,64.19
2023-03-06T15:16:24.254Z,64.65
2023-03-06T15:18:58.858Z,65.03
2023-03-06T15:21:28.497Z,65.21
2023-03-06T15:23:57.483Z,65.26
2023-03-06T15:26:29.346Z,66.31
2023-03-06T15:29:06.975Z,67.04
2023-03-06T15:31:38.517Z,66.33
2023-03-06T15:34:23.234Z,67.25
2023-03-06T15:36:54.126Z,67.73
2023-03-06T15:39:33.238Z,67.84
2023-03-06T15:42:01.961Z,67.84
2023-03-06T15:44:31.802Z,67.17
2023-03-06T15:47:08.707Z,67.24
2023-03-06T15:49:37.866Z,67.45
2023-03-06T15:52:05.520Z,67.93
2023-03-06T15:54:33.248Z,67.92
2023-03-06T15:57:01.113Z,68.17
2023-03-06T15:59:32.898Z,68.75
2023-03-06T16:02:05.380Z,69.30
2023-03-06T16:04:32.965Z,69.99
2023-03-06T16:07:01.002Z,70.63
2023-03-06T16:09:30.373Z,70.58
2023-03-06T16:11:58.052Z,69.88
2023-03-06T16:14:25.998Z,70.22
2023-03-06T16:16:55.119Z,70.33
2023-03-06T16:19:27.409Z,70.89
2023-03-06T16:21:55.782Z,71.75
2023-03-06T16:24:23.562Z,71.56
2023-03-06T16:26:52.591Z,71.98
2023-03-06T16:29:23.479Z,71.59
2023-03-06T16:31:51.647Z,72.03
2023-03-06T16:34:20.316Z,71.82
2023-03-06T16:36:50.627Z,71.63
2023-03-06T16:39:20.228Z,71.99
2023-03-06T16:41:49.221Z,71.91
2023-03-06T16:44:17.179Z,72.40
2023-03-06T16:46:47.908Z,72.81
2023-03-06T16:49:17.857Z,73.17
2023-03-06T16:51:46.100Z,73.40
2023-03-06T16:54:15.506Z,73.55
2023-03-06T16:56:43.557Z,73.90
2023-03-06T16:59:11.456Z,73.81
2023-03-06T17:01:40.938Z,73.92
2023-03-06T17:04:08.929Z,74.56
2023-03-06T17:06:36.857Z,74.89
2023-03-06T17:09:05.084Z,74.36
2023-03-06T17:11:34.690Z,74.35
2023-03-06T17:14:02.612Z,74.74
2023-03-06T17:16:32.067Z,74.29
2023-03-06T17:19:01.947Z,74.61
2023-03-06T17:21:30.612Z,74.09
2023-03-06T17:23:58.421Z,74.57
2023-03-06T17:26:26.557Z,74.64
2023-03-06T17:28:56.203Z,74.82
2023-03-06T17:31:26.681Z,74.46
2023-03-06T17:33:57.080Z,75.13
2023-03-06T17:36:24.931Z,75.44
2023-03-06T17:38:56.068Z,75.36
2023-03-06T17:41:24.696Z,76.38
2023-03-06T17:43:52.701Z,76.92
2023-03-06T17:46:21.776Z,77.31
2023-03-06T17:48:49.385Z,77.40
2023-03-06T17:51:17.079Z,78.00
2023-03-06T17:53:44.813Z,78.09
2023-03-06T17:56:14.059Z,78.46
2023-03-06T17:58:41.820Z,78.27
2023-03-06T18:01:12.768Z,78.03
2023-03-06T18:03:44.873Z,77.73
2023-03-06T18:06:12.616Z,76.99
2023-03-06T18:08:40.911Z,77.47
2023-03-06T18:11:09.835Z,77.91
2023-03-06T18:13:38.931Z,77.72
2023-03-06T18:16:08.081Z,77.96
2023-03-06T18:18:36.072Z,78.25
2023-03-06T18:21:10.038Z,78.14
2023-03-06T18:23:38.023Z,78.39
2023-03-06T18:26:11.785Z,77.90
2023-03-06T18:28:42.444Z,78.57
2023-03-06T18:31:15.823Z,78.08
2023-03-06T18:33:43.400Z,77.82
2023-03-06T18:36:12.364Z,77.69
2023-03-06T18:38:41.255Z,78.15
2023-03-06T18:41:09.361Z,78.70
2023-03-06T18:46:20.911Z,78.65
2023-03-06T18:48:48.471Z,78.68
2023-03-06T18:51:17.760Z,79.15
2023-03-06T18:53:45.346Z,79.27
2023-03-06T18:56:16.560Z,78.95
2023-03-06T18:58:44.327Z,78.78
2023-03-06T19:01:12.573Z,79.29
2023-03-06T19:03:40.402Z,79.64
2023-03-06T19:06:09.904Z,80.25
2023-03-06T19:08:39.629Z,80.33
2023-03-06T19:11:08.691Z,79.68
2023-03-06T19:13:36.364Z,80.11
2023-03-06T19:16:04.285Z,80.38
2023-03-06T19:18:32.319Z,81.04
2023-03-06T19:21:08.553Z,80.91
2023-03-06T19:23:36.214Z,81.46
2023-03-06T19:26:05.843Z,81.62
2023-03-06T19:28:33.427Z,82.07
2023-03-06T19:31:01.038Z,82.55
2023-03-06T19:33:28.696Z,83.13
2023-03-06T19:35:56.315Z,82.72
2023-03-06T19:38:24.480Z,83.37
2023-03-06T19:40:52.388Z,83.62
2023-03-06T19:43:22.668Z,83.72
2023-03-06T19:45:50.368Z,83.45
2023-03-06T19:48:17.983Z,84.13
2023-03-06T19:50:45.513Z,84.22
2023-03-06T19:53:13.064Z,83.98
2023-03-06T19:55:40.869Z,84.79
2023-03-06T19:58:08.512Z,85.23
2023-03-06T20:00:37.486Z,85.55
2023-03-06T20:03:05.122Z,85.46
2023-03-06T20:05:33.558Z,85.90
2023-03-06T20:08:01.236Z,85.49
2023-03-06T20:10:28.804Z,86.03
2023-03-06T20:12:56.436Z,85.84
2023-03-06T20:15:24.106Z,85.67
2023-03-06T20:17:54.191Z,86.21
2023-03-06T20:20:22.816Z,86.39
2023-03-06T20:22:50.400Z,86.39
2023-03-06T20:25:18.209Z,86.45
2023-03-06T20:27:45.918Z,87.32
2023-03-06T20:30:13.872Z,87.47
2023-03-06T20:32:41.437Z,87.33
2023-03-06T20:35:10.793Z,87.24
2023-03-06T20:37:40.704Z,88.14
2023-03-06T20:40:09.921Z,89.21
2023-03-06T20:42:37.700Z,89.26
2023-03-06T20:45:06.206Z,90.04
2023-03-06T20:47:33.812Z,90.44
2023-03-06T20:50:01.383Z,90.69
2023-03-06T20:52:30.248Z,90.22
2023-03-06T20:54:58.150Z,90.88
2023-03-06T20:57:25.794Z,91.22
2023-03-06T20:59:53.336Z,91.64
2023-03-06T21:02:20.919Z,91.88
2023-03-06T21:04:48.760Z,92.07
2023-03-06T21:07:16.895Z,92.10
2023-03-06T21:09:45.826Z,92.85
2023-03-06T21:12:13.431Z,92.66
2023-03-06T21:14:41.054Z,92.66
2023-03-06T21:17:08.673Z,92.31
2023-03-06T21:19:36.987Z,92.71
2023-03-06T21:22:04.828Z,93.05
2023-03-06T21:24:32.445Z,93.71
2023-03-06T21:27:01.377Z,93.23
2023-03-06T21:29:28.966Z,93.26
2023-03-06T21:31:56.579Z,93.34
2023-03-06T21:34:24.242Z,93.29
2023-03-06T21:36:52.064Z,92.75
2023-03-06T21:39:19.598Z,92.81
2023-03-06T21:41:47.250Z,92.39
2023-03-06T21:44:16.224Z,92.25
2023-03-06T21:46:43.786Z,92.60
2023-03-06T21:49:11.517Z,92.13
2023-03-06T21:51:40.492Z,91.89
2023-03-06T21:54:09.709Z,92.03
2023-03-06T21:56:37.449Z,92.23
2023-03-06T21:59:05.291Z,91.84
2023-03-06T22:01:34.786Z,92.47
2023-03-06T22:04:02.577Z,91.89
2023-03-06T22:06:33.431Z,91.93
2023-03-06T22:09:01.541Z,91.54
2023-03-06T22:11:31.058Z,92.28
2023-03-06T22:13:58.860Z,91.16
2023-03-06T22:16:27.067Z,91.45
2023-03-06T22:18:57.547Z,91.61
2023-03-06T22:21:25.385Z,91.44
2023-03-06T22:23:53.695Z,90.88
2023-03-06T22:26:21.567Z,90.78
2023-03-06T22:28:49.289Z,91.16
2023-03-06T22:31:18.413Z,91.07
2023-03-06T22:33:46.060Z,91.57
2023-03-06T22:36:16.169Z,91.09
2023-03-06T22:38:45.675Z,91.83
2023-03-06T22:41:14.751Z,91.24
2023-03-06T22:43:42.619Z,91.73
2023-03-06T22:46:12.125Z,91.74
2023-03-06T22:48:41.228Z,91.80
2023-03-06T22:51:10.352Z,91.00
2023-03-06T22:53:39.925Z,89.75
2023-03-06T22:56:09.245Z,89.42
2023-03-06T22:58:37.730Z,89.65
2023-03-06T23:01:07.579Z,89.58
2023-03-06T23:03:36.233Z,89.70
2023-03-06T23:06:07.205Z,90.10
2023-03-06T23:08:34.820Z,89.69
2023-03-06T23:11:04.365Z,90.40
2023-03-06T23:13:32.266Z,90.43
2023-03-06T23:16:04.035Z,89.45
2023-03-06T23:18:31.978Z,89.80
2023-03-06T23:21:00.866Z,89.63
2023-03-06T23:23:34.682Z,89.46
2023-03-06T23:26:06.182Z,89.35
2023-03-06T23:28:34.938Z,89.24
2023-03-06T23:31:08.298Z,90.42
2023-03-06T23:33:37.073Z,89.96
2023-03-06T23:36:06.049Z,89.69
2023-03-06T23:38:34.425Z,89.63
2023-03-06T23:41:04.754Z,89.61
2023-03-06T23:43:33.475Z,89.37
2023-03-06T23:46:01.890Z,88.84
2023-03-06T23:48:30.270Z,89.41
2023-03-06T23:50:58.481Z,88.92
2023-03-06T23:53:26.901Z,88.66
2023-03-06T23:55:55.065Z,88.91
2023-03-06T23:58:24.599Z,88.74
